Airfield :
LOGIN :

Register | Disclaimer

   EN    FR    IT 

 










Legend :    VFR   Marginal VFR   IFR   Intensive IFR   Very Intensive IFR
Visi :
Ceiling :
>= 8 km
>= 3000ft
5 to 8 km
1000 to 3000 ft
1500m to 5 km
500 to 1000 ft
800 to 1500m
200 to 500 ft
< 800m
< 200 ft
Symbols :   Thunderstorms  Fog  Heavy snow  Heavy precipitations  Wind > 20 kt
SIGMETs :     Misc.  Thunderstorms  Icing  Turbulence  Mountain Waves  Volcanic Ashes







- Airport Elevation : 62 ft
- IATA code : TAN


GMTT - Tanger Ibn Batouta

CURRENT METAR :
  • 261230Z 25009KT 7000 BKN016 BKN200 22/16 Q1015 NOSIG

EXPIRED METARs :
  • 261200Z 25009KT 7000 BKN016 BKN200 22/15 Q1015 NOSIG
  • 261130Z 25010KT 7000 BKN016 BKN200 22/15 Q1015 NOSIG
  • 261100Z 25010KT 7000 BKN016 BKN200 22/15 Q1015 NOSIG
  • 261030Z 24008KT 6000 FEW010 SCT016 BKN200 23/15 Q1015 NOSIG
  • 261000Z 23007KT 190V260 6000 FEW010 SCT016 BKN200 22/16 Q1015 NOSIG

TAF TAF GMTT
Valid from the 26 at 12:00 until the 27 at 18:00 UTC


261100Z 2612/2718 24010KT 7000 BKN016 BKN200
TEMPO 2623/2707 VRB02KT 3000 BR SCT011 SCT016 BKN200
No reported NOTAMs for that airfield.



MET'MAP, your aeronautical weather chart ! - Copyright ORBIFLY December 2007 - Disclaimer

ORBIFLY MET'MAP TEAM :

Programming & Development : Alexandra Zaïnal
Concept & Development : Baudouin d'Aumeries
Co-Development & Prog : Marc-Olivier Méhu
Technical & hardware support : Manuel Goepfert

Contact : metmap@orbifly.com




SOURCES & CREDITS :

   NOAA